sensor_id;sensor_type;location;lat;lon;timestamp;P1;durP1;ratioP1;P2;durP2;ratioP2
61785;SDS011;47692;53.714;11.372;2023-03-14T00:00:08;2.85;;;1.50;;
61785;SDS011;47692;53.714;11.372;2023-03-14T00:02:37;2.47;;;1.60;;
61785;SDS011;47692;53.714;11.372;2023-03-14T00:05:03;2.38;;;1.50;;
61785;SDS011;47692;53.714;11.372;2023-03-14T00:07:32;2.50;;;1.38;;
61785;SDS011;47692;53.714;11.372;2023-03-14T00:10:00;6.10;;;1.70;;
61785;SDS011;47692;53.714;11.372;2023-03-14T00:12:26;2.95;;;1.58;;
61785;SDS011;47692;53.714;11.372;2023-03-14T00:14:51;3.13;;;1.60;;
61785;SDS011;47692;53.714;11.372;2023-03-14T00:17:17;4.32;;;1.50;;
61785;SDS011;47692;53.714;11.372;2023-03-14T00:19:42;4.63;;;1.55;;
61785;SDS011;47692;53.714;11.372;2023-03-14T00:22:07;2.20;;;1.48;;
61785;SDS011;47692;53.714;11.372;2023-03-14T00:24:33;6.32;;;1.80;;
61785;SDS011;47692;53.714;11.372;2023-03-14T00:26:58;2.47;;;1.50;;
61785;SDS011;47692;53.714;11.372;2023-03-14T00:29:23;4.47;;;1.65;;
61785;SDS011;47692;53.714;11.372;2023-03-14T00:31:49;6.65;;;1.50;;
61785;SDS011;47692;53.714;11.372;2023-03-14T00:34:14;4.78;;;1.50;;
61785;SDS011;47692;53.714;11.372;2023-03-14T00:36:40;3.75;;;1.70;;
61785;SDS011;47692;53.714;11.372;2023-03-14T00:39:05;2.40;;;1.40;;
61785;SDS011;47692;53.714;11.372;2023-03-14T00:41:30;3.13;;;1.60;;
61785;SDS011;47692;53.714;11.372;2023-03-14T00:43:58;3.70;;;1.85;;
61785;SDS011;47692;53.714;11.372;2023-03-14T00:46:24;2.50;;;1.60;;
61785;SDS011;47692;53.714;11.372;2023-03-14T00:48:49;4.10;;;1.60;;
61785;SDS011;47692;53.714;11.372;2023-03-14T00:51:15;4.65;;;1.80;;
61785;SDS011;47692;53.714;11.372;2023-03-14T00:53:40;7.10;;;1.70;;
61785;SDS011;47692;53.714;11.372;2023-03-14T00:56:07;2.45;;;1.50;;
61785;SDS011;47692;53.714;11.372;2023-03-14T00:58:34;3.38;;;1.52;;
61785;SDS011;47692;53.714;11.372;2023-03-14T01:01:10;5.43;;;1.92;;
61785;SDS011;47692;53.714;11.372;2023-03-14T01:03:38;7.25;;;1.77;;
61785;SDS011;47692;53.714;11.372;2023-03-14T01:06:11;3.90;;;1.83;;
61785;SDS011;47692;53.714;11.372;2023-03-14T01:08:37;5.25;;;2.15;;
61785;SDS011;47692;53.714;11.372;2023-03-14T01:11:06;5.25;;;1.60;;
61785;SDS011;47692;53.714;11.372;2023-03-14T01:13:37;3.88;;;1.75;;
61785;SDS011;47692;53.714;11.372;2023-03-14T01:16:03;4.00;;;1.92;;
61785;SDS011;47692;53.714;11.372;2023-03-14T01:18:31;3.63;;;2.30;;
61785;SDS011;47692;53.714;11.372;2023-03-14T01:20:57;3.88;;;1.63;;
61785;SDS011;47692;53.714;11.372;2023-03-14T01:23:23;3.90;;;1.90;;
61785;SDS011;47692;53.714;11.372;2023-03-14T01:25:48;2.80;;;1.60;;
61785;SDS011;47692;53.714;11.372;2023-03-14T01:28:13;3.72;;;1.60;;
61785;SDS011;47692;53.714;11.372;2023-03-14T01:30:38;3.63;;;1.85;;
61785;SDS011;47692;53.714;11.372;2023-03-14T01:33:04;5.88;;;1.88;;
61785;SDS011;47692;53.714;11.372;2023-03-14T01:35:29;3.45;;;1.70;;
61785;SDS011;47692;53.714;11.372;2023-03-14T01:37:54;3.17;;;1.60;;
61785;SDS011;47692;53.714;11.372;2023-03-14T01:40:20;3.33;;;1.70;;
61785;SDS011;47692;53.714;11.372;2023-03-14T01:42:55;4.03;;;1.60;;
61785;SDS011;47692;53.714;11.372;2023-03-14T01:48:42;3.95;;;1.60;;
61785;SDS011;47692;53.714;11.372;2023-03-14T01:51:17;5.68;;;1.98;;
61785;SDS011;47692;53.714;11.372;2023-03-14T01:53:46;4.03;;;1.60;;
61785;SDS011;47692;53.714;11.372;2023-03-14T01:56:15;3.97;;;1.95;;
61785;SDS011;47692;53.714;11.372;2023-03-14T01:58:44;3.22;;;1.30;;
61785;SDS011;47692;53.714;11.372;2023-03-14T02:01:12;2.63;;;1.55;;
61785;SDS011;47692;53.714;11.372;2023-03-14T02:03:45;4.07;;;1.88;;
61785;SDS011;47692;53.714;11.372;2023-03-14T02:06:15;6.88;;;2.05;;
61785;SDS011;47692;53.714;11.372;2023-03-14T02:08:44;7.55;;;2.53;;
61785;SDS011;47692;53.714;11.372;2023-03-14T02:11:13;4.53;;;2.00;;
61785;SDS011;47692;53.714;11.372;2023-03-14T02:13:39;3.28;;;1.90;;
61785;SDS011;47692;53.714;11.372;2023-03-14T02:16:04;9.30;;;2.50;;
61785;SDS011;47692;53.714;11.372;2023-03-14T02:18:30;5.45;;;1.98;;
61785;SDS011;47692;53.714;11.372;2023-03-14T02:23:43;6.43;;;2.00;;
61785;SDS011;47692;53.714;11.372;2023-03-14T02:28:59;5.40;;;2.45;;
61785;SDS011;47692;53.714;11.372;2023-03-14T02:31:24;4.38;;;1.80;;
61785;SDS011;47692;53.714;11.372;2023-03-14T02:33:50;6.90;;;1.92;;
61785;SDS011;47692;53.714;11.372;2023-03-14T02:36:16;6.13;;;1.90;;
61785;SDS011;47692;53.714;11.372;2023-03-14T02:41:39;3.55;;;1.70;;
61785;SDS011;47692;53.714;11.372;2023-03-14T02:44:04;4.32;;;1.83;;
61785;SDS011;47692;53.714;11.372;2023-03-14T02:46:30;4.82;;;2.20;;
61785;SDS011;47692;53.714;11.372;2023-03-14T02:48:57;5.22;;;2.13;;
61785;SDS011;47692;53.714;11.372;2023-03-14T02:51:25;5.22;;;1.65;;
61785;SDS011;47692;53.714;11.372;2023-03-14T02:53:52;7.68;;;2.20;;
61785;SDS011;47692;53.714;11.372;2023-03-14T02:56:17;4.35;;;1.73;;
61785;SDS011;47692;53.714;11.372;2023-03-14T02:58:43;5.10;;;1.75;;
61785;SDS011;47692;53.714;11.372;2023-03-14T03:01:08;5.35;;;1.75;;
61785;SDS011;47692;53.714;11.372;2023-03-14T03:03:33;5.53;;;1.92;;
61785;SDS011;47692;53.714;11.372;2023-03-14T03:05:59;4.85;;;1.80;;
61785;SDS011;47692;53.714;11.372;2023-03-14T03:08:25;3.22;;;1.80;;
61785;SDS011;47692;53.714;11.372;2023-03-14T03:10:51;6.43;;;2.00;;
61785;SDS011;47692;53.714;11.372;2023-03-14T03:13:19;6.57;;;2.22;;
61785;SDS011;47692;53.714;11.372;2023-03-14T03:15:45;7.57;;;2.08;;
61785;SDS011;47692;53.714;11.372;2023-03-14T03:18:11;8.45;;;3.03;;
61785;SDS011;47692;53.714;11.372;2023-03-14T03:20:36;6.00;;;2.10;;
61785;SDS011;47692;53.714;11.372;2023-03-14T03:23:02;4.30;;;1.95;;
61785;SDS011;47692;53.714;11.372;2023-03-14T03:25:28;6.97;;;2.00;;
61785;SDS011;47692;53.714;11.372;2023-03-14T03:27:54;4.38;;;1.88;;
61785;SDS011;47692;53.714;11.372;2023-03-14T03:30:20;7.28;;;2.00;;
61785;SDS011;47692;53.714;11.372;2023-03-14T03:32:45;4.72;;;2.10;;
61785;SDS011;47692;53.714;11.372;2023-03-14T03:35:11;6.25;;;1.83;;
61785;SDS011;47692;53.714;11.372;2023-03-14T03:37:37;8.35;;;2.47;;
61785;SDS011;47692;53.714;11.372;2023-03-14T03:40:03;6.22;;;2.10;;
61785;SDS011;47692;53.714;11.372;2023-03-14T03:42:32;6.32;;;1.77;;
61785;SDS011;47692;53.714;11.372;2023-03-14T03:44:59;3.75;;;1.80;;
61785;SDS011;47692;53.714;11.372;2023-03-14T03:47:25;6.80;;;1.70;;
61785;SDS011;47692;53.714;11.372;2023-03-14T03:49:50;4.10;;;1.65;;
61785;SDS011;47692;53.714;11.372;2023-03-14T03:52:15;11.13;;;2.38;;
61785;SDS011;47692;53.714;11.372;2023-03-14T03:54:41;8.77;;;2.42;;
61785;SDS011;47692;53.714;11.372;2023-03-14T03:57:06;3.28;;;1.70;;
61785;SDS011;47692;53.714;11.372;2023-03-14T03:59:31;8.40;;;2.00;;
61785;SDS011;47692;53.714;11.372;2023-03-14T04:01:57;3.80;;;1.90;;
61785;SDS011;47692;53.714;11.372;2023-03-14T04:04:22;6.75;;;2.47;;
61785;SDS011;47692;53.714;11.372;2023-03-14T04:06:47;4.18;;;2.22;;
61785;SDS011;47692;53.714;11.372;2023-03-14T04:09:14;4.95;;;1.88;;
61785;SDS011;47692;53.714;11.372;2023-03-14T04:11:39;4.00;;;1.58;;
61785;SDS011;47692;53.714;11.372;2023-03-14T04:14:06;2.97;;;1.38;;
61785;SDS011;47692;53.714;11.372;2023-03-14T04:16:31;6.43;;;1.65;;
61785;SDS011;47692;53.714;11.372;2023-03-14T04:18:57;4.50;;;2.40;;
61785;SDS011;47692;53.714;11.372;2023-03-14T04:21:22;9.80;;;2.08;;
61785;SDS011;47692;53.714;11.372;2023-03-14T04:23:48;4.82;;;1.70;;
61785;SDS011;47692;53.714;11.372;2023-03-14T04:26:13;5.22;;;2.20;;
61785;SDS011;47692;53.714;11.372;2023-03-14T04:28:39;6.00;;;1.83;;
61785;SDS011;47692;53.714;11.372;2023-03-14T04:31:11;5.25;;;2.03;;
61785;SDS011;47692;53.714;11.372;2023-03-14T04:33:37;6.05;;;2.20;;
61785;SDS011;47692;53.714;11.372;2023-03-14T04:36:04;3.00;;;1.83;;
61785;SDS011;47692;53.714;11.372;2023-03-14T04:38:30;5.22;;;2.15;;
61785;SDS011;47692;53.714;11.372;2023-03-14T04:40:56;4.65;;;1.75;;
61785;SDS011;47692;53.714;11.372;2023-03-14T04:43:22;5.75;;;2.13;;
61785;SDS011;47692;53.714;11.372;2023-03-14T04:45:47;9.32;;;2.47;;
61785;SDS011;47692;53.714;11.372;2023-03-14T04:48:12;3.20;;;2.08;;
61785;SDS011;47692;53.714;11.372;2023-03-14T04:50:38;6.03;;;2.13;;
61785;SDS011;47692;53.714;11.372;2023-03-14T04:53:03;4.97;;;2.10;;
61785;SDS011;47692;53.714;11.372;2023-03-14T04:55:29;5.85;;;1.70;;
61785;SDS011;47692;53.714;11.372;2023-03-14T04:57:54;6.97;;;2.05;;
61785;SDS011;47692;53.714;11.372;2023-03-14T05:00:19;9.60;;;2.47;;
61785;SDS011;47692;53.714;11.372;2023-03-14T05:02:45;6.60;;;2.00;;
61785;SDS011;47692;53.714;11.372;2023-03-14T05:05:10;4.60;;;1.77;;
61785;SDS011;47692;53.714;11.372;2023-03-14T05:07:36;4.28;;;2.03;;
61785;SDS011;47692;53.714;11.372;2023-03-14T05:10:01;4.05;;;1.90;;
61785;SDS011;47692;53.714;11.372;2023-03-14T05:12:27;4.90;;;1.88;;
61785;SDS011;47692;53.714;11.372;2023-03-14T05:14:52;5.82;;;1.80;;
61785;SDS011;47692;53.714;11.372;2023-03-14T05:17:17;5.22;;;2.20;;
61785;SDS011;47692;53.714;11.372;2023-03-14T05:19:43;8.23;;;2.35;;
61785;SDS011;47692;53.714;11.372;2023-03-14T05:22:09;4.72;;;1.63;;
61785;SDS011;47692;53.714;11.372;2023-03-14T05:24:35;5.80;;;2.00;;
61785;SDS011;47692;53.714;11.372;2023-03-14T05:27:00;2.90;;;1.50;;
61785;SDS011;47692;53.714;11.372;2023-03-14T05:29:26;4.32;;;1.60;;
61785;SDS011;47692;53.714;11.372;2023-03-14T05:31:51;7.45;;;2.25;;
61785;SDS011;47692;53.714;11.372;2023-03-14T05:34:16;5.57;;;1.98;;
61785;SDS011;47692;53.714;11.372;2023-03-14T05:36:41;6.18;;;1.98;;
61785;SDS011;47692;53.714;11.372;2023-03-14T05:39:07;6.50;;;1.75;;
61785;SDS011;47692;53.714;11.372;2023-03-14T05:41:32;3.58;;;1.70;;
61785;SDS011;47692;53.714;11.372;2023-03-14T05:43:57;6.00;;;1.60;;
61785;SDS011;47692;53.714;11.372;2023-03-14T05:46:23;5.82;;;1.58;;
61785;SDS011;47692;53.714;11.372;2023-03-14T05:48:48;4.25;;;1.65;;
61785;SDS011;47692;53.714;11.372;2023-03-14T05:51:13;5.05;;;1.88;;
61785;SDS011;47692;53.714;11.372;2023-03-14T05:53:39;6.07;;;1.83;;
61785;SDS011;47692;53.714;11.372;2023-03-14T05:56:04;6.75;;;1.67;;
61785;SDS011;47692;53.714;11.372;2023-03-14T05:58:30;4.50;;;2.40;;
61785;SDS011;47692;53.714;11.372;2023-03-14T06:00:55;5.20;;;1.75;;
61785;SDS011;47692;53.714;11.372;2023-03-14T06:03:20;5.25;;;1.98;;
61785;SDS011;47692;53.714;11.372;2023-03-14T06:05:46;4.90;;;2.25;;
61785;SDS011;47692;53.714;11.372;2023-03-14T06:08:14;6.28;;;2.65;;
61785;SDS011;47692;53.714;11.372;2023-03-14T06:10:39;9.40;;;2.38;;
61785;SDS011;47692;53.714;11.372;2023-03-14T06:13:04;5.45;;;2.45;;
61785;SDS011;47692;53.714;11.372;2023-03-14T06:15:30;5.22;;;2.00;;
61785;SDS011;47692;53.714;11.372;2023-03-14T06:17:55;6.78;;;2.30;;
61785;SDS011;47692;53.714;11.372;2023-03-14T06:20:21;4.55;;;1.70;;
61785;SDS011;47692;53.714;11.372;2023-03-14T06:22:46;5.25;;;1.85;;
61785;SDS011;47692;53.714;11.372;2023-03-14T06:25:11;7.35;;;1.95;;
61785;SDS011;47692;53.714;11.372;2023-03-14T06:27:37;4.82;;;2.00;;
61785;SDS011;47692;53.714;11.372;2023-03-14T06:30:02;5.55;;;1.88;;
61785;SDS011;47692;53.714;11.372;2023-03-14T06:32:28;6.20;;;1.83;;
61785;SDS011;47692;53.714;11.372;2023-03-14T06:34:54;4.97;;;1.50;;
61785;SDS011;47692;53.714;11.372;2023-03-14T06:37:19;5.35;;;1.77;;
61785;SDS011;47692;53.714;11.372;2023-03-14T06:39:44;6.25;;;1.85;;
61785;SDS011;47692;53.714;11.372;2023-03-14T06:42:10;5.95;;;1.60;;
61785;SDS011;47692;53.714;11.372;2023-03-14T06:44:35;5.13;;;1.70;;
61785;SDS011;47692;53.714;11.372;2023-03-14T06:47:01;4.63;;;1.52;;
61785;SDS011;47692;53.714;11.372;2023-03-14T06:49:26;8.00;;;1.58;;
61785;SDS011;47692;53.714;11.372;2023-03-14T06:51:52;3.65;;;1.65;;
61785;SDS011;47692;53.714;11.372;2023-03-14T06:54:17;4.95;;;1.20;;
61785;SDS011;47692;53.714;11.372;2023-03-14T06:56:42;4.25;;;1.90;;
61785;SDS011;47692;53.714;11.372;2023-03-14T06:59:08;3.88;;;1.48;;
61785;SDS011;47692;53.714;11.372;2023-03-14T07:01:33;2.92;;;1.40;;
61785;SDS011;47692;53.714;11.372;2023-03-14T07:03:59;5.68;;;1.88;;
61785;SDS011;47692;53.714;11.372;2023-03-14T07:06:25;5.72;;;1.50;;
61785;SDS011;47692;53.714;11.372;2023-03-14T07:08:54;6.10;;;1.63;;
61785;SDS011;47692;53.714;11.372;2023-03-14T07:11:19;4.65;;;1.30;;
61785;SDS011;47692;53.714;11.372;2023-03-14T07:13:45;3.95;;;1.55;;
61785;SDS011;47692;53.714;11.372;2023-03-14T07:16:10;2.85;;;1.30;;
61785;SDS011;47692;53.714;11.372;2023-03-14T07:18:35;2.85;;;1.45;;
61785;SDS011;47692;53.714;11.372;2023-03-14T07:21:02;6.75;;;1.52;;
61785;SDS011;47692;53.714;11.372;2023-03-14T07:23:28;4.50;;;1.80;;
61785;SDS011;47692;53.714;11.372;2023-03-14T07:25:54;2.78;;;1.30;;
61785;SDS011;47692;53.714;11.372;2023-03-14T07:28:19;4.60;;;1.50;;
61785;SDS011;47692;53.714;11.372;2023-03-14T07:30:46;6.00;;;1.73;;
61785;SDS011;47692;53.714;11.372;2023-03-14T07:33:12;5.45;;;1.30;;
61785;SDS011;47692;53.714;11.372;2023-03-14T07:35:37;2.92;;;1.50;;
61785;SDS011;47692;53.714;11.372;2023-03-14T07:38:02;3.00;;;1.35;;
61785;SDS011;47692;53.714;11.372;2023-03-14T07:40:27;3.22;;;1.45;;
61785;SDS011;47692;53.714;11.372;2023-03-14T07:42:53;3.55;;;1.40;;
61785;SDS011;47692;53.714;11.372;2023-03-14T07:45:20;6.00;;;1.90;;
61785;SDS011;47692;53.714;11.372;2023-03-14T07:47:45;3.13;;;1.45;;
61785;SDS011;47692;53.714;11.372;2023-03-14T07:50:10;5.78;;;2.05;;
61785;SDS011;47692;53.714;11.372;2023-03-14T07:52:36;4.45;;;1.70;;
61785;SDS011;47692;53.714;11.372;2023-03-14T07:55:01;3.83;;;1.67;;
61785;SDS011;47692;53.714;11.372;2023-03-14T07:57:26;3.30;;;1.42;;
61785;SDS011;47692;53.714;11.372;2023-03-14T07:59:52;3.92;;;1.60;;
61785;SDS011;47692;53.714;11.372;2023-03-14T08:02:17;3.83;;;1.13;;
61785;SDS011;47692;53.714;11.372;2023-03-14T08:04:45;3.67;;;1.70;;
61785;SDS011;47692;53.714;11.372;2023-03-14T08:07:10;2.72;;;1.48;;
61785;SDS011;47692;53.714;11.372;2023-03-14T08:09:35;7.07;;;2.10;;
61785;SDS011;47692;53.714;11.372;2023-03-14T08:12:01;6.47;;;1.67;;
61785;SDS011;47692;53.714;11.372;2023-03-14T08:14:26;4.05;;;1.50;;
61785;SDS011;47692;53.714;11.372;2023-03-14T08:16:54;4.40;;;1.40;;
61785;SDS011;47692;53.714;11.372;2023-03-14T08:19:19;2.72;;;1.65;;
61785;SDS011;47692;53.714;11.372;2023-03-14T08:21:44;3.30;;;1.50;;
61785;SDS011;47692;53.714;11.372;2023-03-14T08:24:09;5.57;;;1.67;;
61785;SDS011;47692;53.714;11.372;2023-03-14T08:26:35;3.92;;;1.90;;
61785;SDS011;47692;53.714;11.372;2023-03-14T08:29:00;5.35;;;1.70;;
61785;SDS011;47692;53.714;11.372;2023-03-14T08:31:26;3.55;;;1.60;;
61785;SDS011;47692;53.714;11.372;2023-03-14T08:33:51;3.75;;;1.92;;
61785;SDS011;47692;53.714;11.372;2023-03-14T08:36:18;4.10;;;1.30;;
61785;SDS011;47692;53.714;11.372;2023-03-14T08:38:44;2.08;;;1.20;;
61785;SDS011;47692;53.714;11.372;2023-03-14T08:41:09;3.92;;;1.30;;
61785;SDS011;47692;53.714;11.372;2023-03-14T08:43:35;2.80;;;1.30;;
61785;SDS011;47692;53.714;11.372;2023-03-14T08:46:01;4.93;;;1.30;;
61785;SDS011;47692;53.714;11.372;2023-03-14T08:48:27;4.68;;;1.33;;
61785;SDS011;47692;53.714;11.372;2023-03-14T08:50:55;2.72;;;1.40;;
61785;SDS011;47692;53.714;11.372;2023-03-14T08:53:28;5.05;;;1.77;;
61785;SDS011;47692;53.714;11.372;2023-03-14T08:55:54;6.05;;;2.58;;
61785;SDS011;47692;53.714;11.372;2023-03-14T08:58:19;5.72;;;1.50;;
61785;SDS011;47692;53.714;11.372;2023-03-14T09:00:44;3.80;;;1.60;;
61785;SDS011;47692;53.714;11.372;2023-03-14T09:03:09;5.68;;;2.10;;
61785;SDS011;47692;53.714;11.372;2023-03-14T09:05:35;4.15;;;1.80;;
61785;SDS011;47692;53.714;11.372;2023-03-14T09:08:00;8.40;;;2.15;;
61785;SDS011;47692;53.714;11.372;2023-03-14T09:10:26;4.72;;;1.77;;
61785;SDS011;47692;53.714;11.372;2023-03-14T09:12:51;7.38;;;2.20;;
61785;SDS011;47692;53.714;11.372;2023-03-14T09:15:16;4.57;;;2.00;;
61785;SDS011;47692;53.714;11.372;2023-03-14T09:17:42;5.05;;;2.10;;
61785;SDS011;47692;53.714;11.372;2023-03-14T09:20:08;4.40;;;2.55;;
61785;SDS011;47692;53.714;11.372;2023-03-14T09:22:34;4.22;;;2.20;;
61785;SDS011;47692;53.714;11.372;2023-03-14T09:25:00;8.52;;;2.08;;
61785;SDS011;47692;53.714;11.372;2023-03-14T09:27:26;5.40;;;2.08;;
61785;SDS011;47692;53.714;11.372;2023-03-14T09:29:52;6.72;;;2.28;;
61785;SDS011;47692;53.714;11.372;2023-03-14T09:32:17;4.72;;;2.45;;
61785;SDS011;47692;53.714;11.372;2023-03-14T09:34:43;6.07;;;2.33;;
61785;SDS011;47692;53.714;11.372;2023-03-14T09:37:08;6.63;;;2.45;;
61785;SDS011;47692;53.714;11.372;2023-03-14T09:39:33;7.43;;;2.60;;
61785;SDS011;47692;53.714;11.372;2023-03-14T09:42:00;6.72;;;2.50;;
61785;SDS011;47692;53.714;11.372;2023-03-14T09:44:34;7.15;;;3.28;;
61785;SDS011;47692;53.714;11.372;2023-03-14T09:47:06;6.40;;;2.10;;
61785;SDS011;47692;53.714;11.372;2023-03-14T09:49:37;5.90;;;2.45;;
61785;SDS011;47692;53.714;11.372;2023-03-14T09:52:07;6.88;;;2.38;;
61785;SDS011;47692;53.714;11.372;2023-03-14T09:54:40;6.90;;;2.50;;
61785;SDS011;47692;53.714;11.372;2023-03-14T09:57:11;4.20;;;2.10;;
61785;SDS011;47692;53.714;11.372;2023-03-14T09:59:39;6.10;;;2.22;;
61785;SDS011;47692;53.714;11.372;2023-03-14T10:02:11;5.70;;;2.42;;
61785;SDS011;47692;53.714;11.372;2023-03-14T10:04:40;4.75;;;2.10;;
61785;SDS011;47692;53.714;11.372;2023-03-14T10:07:13;7.03;;;2.28;;
61785;SDS011;47692;53.714;11.372;2023-03-14T10:09:42;5.90;;;2.22;;
61785;SDS011;47692;53.714;11.372;2023-03-14T10:12:09;4.90;;;2.20;;
61785;SDS011;47692;53.714;11.372;2023-03-14T10:14:36;6.63;;;2.17;;
61785;SDS011;47692;53.714;11.372;2023-03-14T10:17:13;6.15;;;2.30;;
61785;SDS011;47692;53.714;11.372;2023-03-14T10:19:50;10.02;;;2.35;;
61785;SDS011;47692;53.714;11.372;2023-03-14T10:22:20;10.52;;;2.20;;
61785;SDS011;47692;53.714;11.372;2023-03-14T10:24:52;6.30;;;1.83;;
61785;SDS011;47692;53.714;11.372;2023-03-14T10:27:22;4.65;;;1.90;;
61785;SDS011;47692;53.714;11.372;2023-03-14T10:29:54;6.47;;;2.10;;
61785;SDS011;47692;53.714;11.372;2023-03-14T10:32:22;6.93;;;1.85;;
61785;SDS011;47692;53.714;11.372;2023-03-14T10:37:47;5.15;;;1.80;;
61785;SDS011;47692;53.714;11.372;2023-03-14T10:40:15;2.95;;;1.75;;
61785;SDS011;47692;53.714;11.372;2023-03-14T10:42:43;5.57;;;1.80;;
61785;SDS011;47692;53.714;11.372;2023-03-14T10:45:23;3.80;;;2.20;;
61785;SDS011;47692;53.714;11.372;2023-03-14T10:47:56;5.45;;;2.13;;
61785;SDS011;47692;53.714;11.372;2023-03-14T10:50:26;5.15;;;1.90;;
61785;SDS011;47692;53.714;11.372;2023-03-14T10:52:53;8.25;;;1.92;;
61785;SDS011;47692;53.714;11.372;2023-03-14T10:55:19;3.92;;;1.40;;
61785;SDS011;47692;53.714;11.372;2023-03-14T10:57:45;4.00;;;1.35;;
61785;SDS011;47692;53.714;11.372;2023-03-14T11:00:18;3.70;;;1.42;;
61785;SDS011;47692;53.714;11.372;2023-03-14T11:05:40;5.93;;;1.55;;
61785;SDS011;47692;53.714;11.372;2023-03-14T11:08:46;2.40;;;1.33;;
61785;SDS011;47692;53.714;11.372;2023-03-14T11:11:14;6.22;;;1.40;;
61785;SDS011;47692;53.714;11.372;2023-03-14T11:16:57;3.42;;;1.35;;
61785;SDS011;47692;53.714;11.372;2023-03-14T11:22:46;1.05;;;0.47;;
61785;SDS011;47692;53.714;11.372;2023-03-14T11:30:52;1.67;;;0.50;;
61785;SDS011;47692;53.714;11.372;2023-03-14T11:33:21;1.75;;;0.80;;
61785;SDS011;47692;53.714;11.372;2023-03-14T11:38:48;1.13;;;0.55;;
61785;SDS011;47692;53.714;11.372;2023-03-14T11:44:10;1.55;;;0.50;;
61785;SDS011;47692;53.714;11.372;2023-03-14T11:52:05;0.52;;;0.40;;
61785;SDS011;47692;53.714;11.372;2023-03-14T11:57:15;1.38;;;0.47;;
61785;SDS011;47692;53.714;11.372;2023-03-14T12:02:27;1.05;;;0.40;;
61785;SDS011;47692;53.714;11.372;2023-03-14T12:10:26;1.60;;;0.80;;
61785;SDS011;47692;53.714;11.372;2023-03-14T12:12:51;3.08;;;0.55;;
61785;SDS011;47692;53.714;11.372;2023-03-14T12:15:18;1.55;;;0.50;;
61785;SDS011;47692;53.714;11.372;2023-03-14T12:17:45;1.55;;;0.65;;
61785;SDS011;47692;53.714;11.372;2023-03-14T12:22:49;3.55;;;0.85;;
61785;SDS011;47692;53.714;11.372;2023-03-14T12:25:16;2.10;;;0.80;;
61785;SDS011;47692;53.714;11.372;2023-03-14T12:27:46;4.60;;;1.33;;
61785;SDS011;47692;53.714;11.372;2023-03-14T12:30:25;5.88;;;1.00;;
61785;SDS011;47692;53.714;11.372;2023-03-14T12:33:38;2.40;;;0.80;;
61785;SDS011;47692;53.714;11.372;2023-03-14T12:35:45;2.72;;;0.50;;
61785;SDS011;47692;53.714;11.372;2023-03-14T12:41:16;8.00;;;1.08;;
61785;SDS011;47692;53.714;11.372;2023-03-14T12:43:48;6.60;;;1.08;;
61785;SDS011;47692;53.714;11.372;2023-03-14T12:46:20;5.25;;;0.65;;
61785;SDS011;47692;53.714;11.372;2023-03-14T12:48:48;2.90;;;1.50;;
61785;SDS011;47692;53.714;11.372;2023-03-14T12:51:40;6.82;;;1.02;;
61785;SDS011;47692;53.714;11.372;2023-03-14T13:04:32;3.77;;;0.80;;
61785;SDS011;47692;53.714;11.372;2023-03-14T13:07:00;4.03;;;0.68;;
61785;SDS011;47692;53.714;11.372;2023-03-14T13:11:56;8.00;;;1.25;;
61785;SDS011;47692;53.714;11.372;2023-03-14T13:14:27;9.60;;;2.42;;
61785;SDS011;47692;53.714;11.372;2023-03-14T13:16:54;10.68;;;1.17;;
61785;SDS011;47692;53.714;11.372;2023-03-14T13:19:20;9.98;;;1.38;;
61785;SDS011;47692;53.714;11.372;2023-03-14T13:21:50;11.95;;;1.38;;
61785;SDS011;47692;53.714;11.372;2023-03-14T13:24:21;9.18;;;1.60;;
61785;SDS011;47692;53.714;11.372;2023-03-14T13:26:49;1.92;;;0.77;;
61785;SDS011;47692;53.714;11.372;2023-03-14T13:29:21;2.30;;;1.10;;
61785;SDS011;47692;53.714;11.372;2023-03-14T13:31:52;4.72;;;1.30;;
61785;SDS011;47692;53.714;11.372;2023-03-14T13:34:24;7.78;;;1.33;;
61785;SDS011;47692;53.714;11.372;2023-03-14T13:36:57;2.28;;;0.80;;
61785;SDS011;47692;53.714;11.372;2023-03-14T13:39:24;9.20;;;0.90;;
61785;SDS011;47692;53.714;11.372;2023-03-14T13:41:50;5.85;;;1.10;;
61785;SDS011;47692;53.714;11.372;2023-03-14T13:44:18;8.27;;;1.27;;
61785;SDS011;47692;53.714;11.372;2023-03-14T13:46:49;5.93;;;1.10;;
61785;SDS011;47692;53.714;11.372;2023-03-14T13:49:21;5.00;;;0.95;;
61785;SDS011;47692;53.714;11.372;2023-03-14T13:51:48;4.38;;;0.90;;
61785;SDS011;47692;53.714;11.372;2023-03-14T13:54:15;7.15;;;0.80;;
61785;SDS011;47692;53.714;11.372;2023-03-14T13:56:42;4.50;;;1.00;;
61785;SDS011;47692;53.714;11.372;2023-03-14T13:59:24;9.05;;;1.33;;
61785;SDS011;47692;53.714;11.372;2023-03-14T14:01:51;3.88;;;0.85;;
61785;SDS011;47692;53.714;11.372;2023-03-14T14:04:19;7.45;;;1.05;;
61785;SDS011;47692;53.714;11.372;2023-03-14T14:06:49;4.10;;;0.80;;
61785;SDS011;47692;53.714;11.372;2023-03-14T14:09:28;6.63;;;1.08;;
61785;SDS011;47692;53.714;11.372;2023-03-14T14:11:56;8.57;;;1.45;;
61785;SDS011;47692;53.714;11.372;2023-03-14T14:14:36;5.37;;;1.00;;
61785;SDS011;47692;53.714;11.372;2023-03-14T14:17:06;5.50;;;1.05;;
61785;SDS011;47692;53.714;11.372;2023-03-14T14:19:38;5.75;;;1.00;;
61785;SDS011;47692;53.714;11.372;2023-03-14T14:22:04;2.78;;;1.40;;
61785;SDS011;47692;53.714;11.372;2023-03-14T14:24:31;6.43;;;1.30;;
61785;SDS011;47692;53.714;11.372;2023-03-14T14:27:14;3.35;;;0.80;;
61785;SDS011;47692;53.714;11.372;2023-03-14T14:29:42;7.00;;;1.30;;
61785;SDS011;47692;53.714;11.372;2023-03-14T14:37:41;3.80;;;1.20;;
61785;SDS011;47692;53.714;11.372;2023-03-14T14:42:48;8.02;;;1.63;;
61785;SDS011;47692;53.714;11.372;2023-03-14T14:45:18;6.28;;;0.85;;
61785;SDS011;47692;53.714;11.372;2023-03-14T14:47:52;7.32;;;1.10;;
61785;SDS011;47692;53.714;11.372;2023-03-14T14:50:31;3.85;;;0.80;;
61785;SDS011;47692;53.714;11.372;2023-03-14T14:53:20;5.82;;;0.88;;
61785;SDS011;47692;53.714;11.372;2023-03-14T14:56:00;3.80;;;0.90;;
61785;SDS011;47692;53.714;11.372;2023-03-14T14:58:34;8.02;;;1.63;;
61785;SDS011;47692;53.714;11.372;2023-03-14T15:01:18;5.60;;;0.95;;
61785;SDS011;47692;53.714;11.372;2023-03-14T15:03:48;5.47;;;1.10;;
61785;SDS011;47692;53.714;11.372;2023-03-14T15:06:16;7.07;;;0.93;;
61785;SDS011;47692;53.714;11.372;2023-03-14T15:08:42;7.70;;;1.05;;
61785;SDS011;47692;53.714;11.372;2023-03-14T15:11:13;3.17;;;1.42;;
61785;SDS011;47692;53.714;11.372;2023-03-14T15:13:42;3.47;;;1.02;;
61785;SDS011;47692;53.714;11.372;2023-03-14T15:16:11;9.02;;;1.08;;
61785;SDS011;47692;53.714;11.372;2023-03-14T15:18:37;5.45;;;1.00;;
61785;SDS011;47692;53.714;11.372;2023-03-14T15:21:04;4.82;;;1.02;;
61785;SDS011;47692;53.714;11.372;2023-03-14T15:23:29;8.32;;;1.40;;
61785;SDS011;47692;53.714;11.372;2023-03-14T15:25:55;5.53;;;1.02;;
61785;SDS011;47692;53.714;11.372;2023-03-14T15:28:27;6.32;;;1.00;;
61785;SDS011;47692;53.714;11.372;2023-03-14T15:30:55;6.63;;;1.17;;
61785;SDS011;47692;53.714;11.372;2023-03-14T15:33:22;9.95;;;1.40;;
61785;SDS011;47692;53.714;11.372;2023-03-14T15:35:48;5.45;;;1.58;;
61785;SDS011;47692;53.714;11.372;2023-03-14T15:38:15;4.65;;;1.05;;
61785;SDS011;47692;53.714;11.372;2023-03-14T15:40:44;4.63;;;1.08;;
61785;SDS011;47692;53.714;11.372;2023-03-14T15:43:10;6.88;;;1.20;;
61785;SDS011;47692;53.714;11.372;2023-03-14T15:45:35;7.10;;;0.80;;
61785;SDS011;47692;53.714;11.372;2023-03-14T15:48:00;11.90;;;1.30;;
61785;SDS011;47692;53.714;11.372;2023-03-14T15:50:26;6.60;;;0.82;;
61785;SDS011;47692;53.714;11.372;2023-03-14T15:52:52;4.90;;;1.10;;